createdAt,value
2023-03-15T00:01:16.002Z,0.40
2023-03-15T00:06:18.315Z,0.57
2023-03-15T00:11:21.439Z,0.60
2023-03-15T00:16:28.818Z,0.40
2023-03-15T00:21:31.751Z,0.40
2023-03-15T00:26:34.164Z,0.30
2023-03-15T00:31:38.069Z,0.30
2023-03-15T00:36:43.573Z,0.20
2023-03-15T00:41:46.321Z,0.30
2023-03-15T00:46:50.199Z,0.37
2023-03-15T00:51:52.239Z,0.20
2023-03-15T00:56:54.876Z,0.10
2023-03-15T01:01:59.368Z,0.00
2023-03-15T01:07:03.110Z,0.00
2023-03-15T01:12:05.671Z,0.00
2023-03-15T01:17:09.631Z,0.00
2023-03-15T01:22:11.850Z,0.00
2023-03-15T01:27:14.549Z,0.10
2023-03-15T01:32:18.147Z,0.10
2023-03-15T01:37:20.107Z,0.00
2023-03-15T01:42:22.437Z,0.10
2023-03-15T01:47:27.923Z,0.10
2023-03-15T01:52:35.706Z,0.20
2023-03-15T01:57:40.434Z,0.10
2023-03-15T02:02:48.671Z,0.20
2023-03-15T02:07:54.727Z,0.10
2023-03-15T02:12:58.886Z,0.10
2023-03-15T02:18:02.224Z,0.10
2023-03-15T02:23:07.115Z,0.30
2023-03-15T02:28:13.490Z,0.20
2023-03-15T02:33:20.963Z,0.13
2023-03-15T02:38:23.809Z,0.30
2023-03-15T02:43:30.768Z,0.30
2023-03-15T02:48:35.075Z,0.30
2023-03-15T02:53:37.323Z,0.60
2023-03-15T02:58:41.042Z,0.40
2023-03-15T03:03:44.338Z,0.60
2023-03-15T03:08:47.930Z,0.57
2023-03-15T03:13:51.499Z,0.30
2023-03-15T03:18:53.717Z,0.40
2023-03-15T03:23:56.236Z,0.20
2023-03-15T03:29:00.599Z,0.33
2023-03-15T03:34:02.740Z,0.40
2023-03-15T03:39:05.371Z,0.43
2023-03-15T03:44:09.059Z,0.33
2023-03-15T03:49:11.309Z,0.50
2023-03-15T03:54:15.324Z,0.50
2023-03-15T03:59:20.230Z,0.67
2023-03-15T04:04:22.419Z,0.50
2023-03-15T04:09:25.212Z,0.60
2023-03-15T04:14:28.838Z,0.57
2023-03-15T04:19:31.372Z,0.80
2023-03-15T04:24:33.331Z,0.80
2023-03-15T04:29:37.488Z,0.60
2023-03-15T04:34:39.917Z,0.50
2023-03-15T04:39:42.913Z,0.80
2023-03-15T04:44:47.102Z,0.83
2023-03-15T04:49:49.436Z,0.73
2023-03-15T04:54:51.994Z,0.70
2023-03-15T04:59:55.226Z,0.60
2023-03-15T05:04:57.324Z,0.70
2023-03-15T05:09:59.485Z,1.10
2023-03-15T05:15:03.307Z,0.90
2023-03-15T05:20:10.856Z,1.70
2023-03-15T05:25:13.026Z,1.60
2023-03-15T05:30:17.510Z,1.20
2023-03-15T05:35:20.032Z,1.30
2023-03-15T05:40:22.336Z,1.27
2023-03-15T05:45:26.096Z,1.67
2023-03-15T05:50:28.936Z,1.60
2023-03-15T05:55:31.236Z,1.50
2023-03-15T06:00:35.221Z,2.70
2023-03-15T06:05:37.596Z,1.40
2023-03-15T06:10:40.166Z,1.73
2023-03-15T06:15:43.989Z,2.57
2023-03-15T06:20:46.178Z,2.07
2023-03-15T06:25:48.181Z,2.37
2023-03-15T06:30:51.413Z,2.00
2023-03-15T06:35:53.460Z,3.07
2023-03-15T06:40:58.573Z,3.70
2023-03-15T06:46:02.069Z,3.70
2023-03-15T06:51:06.210Z,4.03
2023-03-15T06:56:08.687Z,2.60
2023-03-15T07:01:15.319Z,3.23
2023-03-15T07:06:17.561Z,4.30
2023-03-15T07:11:19.793Z,3.50
2023-03-15T07:16:23.750Z,3.80
2023-03-15T07:21:26.137Z,3.50
2023-03-15T07:26:28.326Z,3.17
2023-03-15T07:31:32.203Z,2.77
2023-03-15T07:36:34.636Z,2.67
2023-03-15T07:41:36.954Z,1.93
2023-03-15T07:46:40.410Z,1.90
2023-03-15T07:51:43.762Z,2.10
2023-03-15T07:56:45.651Z,1.87
2023-03-15T08:01:49.628Z,1.73
2023-03-15T08:06:52.183Z,1.57
2023-03-15T08:11:54.585Z,1.67
2023-03-15T08:16:58.065Z,1.20
2023-03-15T08:22:00.394Z,1.00
2023-03-15T08:27:02.414Z,1.20
2023-03-15T08:32:07.028Z,0.90
2023-03-15T08:37:09.155Z,0.90
2023-03-15T08:42:11.844Z,0.70
2023-03-15T08:47:15.561Z,0.80
2023-03-15T08:52:18.338Z,0.90
2023-03-15T08:57:20.612Z,0.80
2023-03-15T09:02:24.698Z,0.53
2023-03-15T09:07:27.093Z,0.57
2023-03-15T09:12:29.281Z,0.60
2023-03-15T09:17:33.055Z,0.50
2023-03-15T09:22:39.558Z,0.47
2023-03-15T09:27:42.128Z,0.47
2023-03-15T09:32:46.406Z,0.50
2023-03-15T09:37:49.984Z,0.47
2023-03-15T09:43:06.554Z,0.55
2023-03-15T09:48:16.685Z,0.38
2023-03-15T09:53:25.244Z,0.50
2023-03-15T09:58:32.840Z,0.43
2023-03-15T10:03:44.273Z,0.57
2023-03-15T10:08:47.682Z,0.40
2023-03-15T10:14:09.961Z,0.40
2023-03-15T10:19:24.129Z,0.40
2023-03-15T10:24:35.886Z,0.60
2023-03-15T10:29:38.712Z,0.40
2023-03-15T10:34:42.221Z,0.40
2023-03-15T10:39:48.238Z,0.80
2023-03-15T10:44:50.668Z,0.40
2023-03-15T10:49:58.648Z,0.50
2023-03-15T10:55:04.515Z,0.43
2023-03-15T11:00:24.132Z,0.50
2023-03-15T11:05:32.442Z,0.60
2023-03-15T11:10:36.679Z,0.50
2023-03-15T11:15:39.217Z,0.53
2023-03-15T11:20:42.951Z,0.60
2023-03-15T11:25:45.112Z,0.40
2023-03-15T11:30:48.899Z,0.40
2023-03-15T11:35:54.225Z,0.50
2023-03-15T11:41:00.190Z,0.60
2023-03-15T11:46:06.270Z,0.52
2023-03-15T11:51:11.755Z,0.47
2023-03-15T11:56:26.812Z,0.30
2023-03-15T12:01:29.310Z,0.30
2023-03-15T12:06:40.296Z,0.50
2023-03-15T12:11:43.888Z,0.30
2023-03-15T12:16:47.803Z,0.40
2023-03-15T12:21:54.722Z,0.40
2023-03-15T12:27:05.118Z,0.40
2023-03-15T12:32:13.775Z,0.33
2023-03-15T12:37:21.546Z,0.40
2023-03-15T12:43:01.799Z,0.40
2023-03-15T12:48:22.769Z,0.43
2023-03-15T12:53:37.370Z,0.20
2023-03-15T12:58:42.761Z,0.23
2023-03-15T13:03:45.115Z,0.20
2023-03-15T13:08:58.098Z,0.20
2023-03-15T13:14:28.174Z,0.30
2023-03-15T13:19:37.322Z,0.30
2023-03-15T13:24:52.682Z,0.30
2023-03-15T13:29:55.876Z,0.20
2023-03-15T13:34:58.957Z,0.30
2023-03-15T13:40:05.604Z,0.10
2023-03-15T13:45:15.704Z,0.20
2023-03-15T13:50:20.042Z,0.13
2023-03-15T13:55:25.734Z,0.37
2023-03-15T14:00:33.985Z,0.27
2023-03-15T14:05:45.762Z,0.20
2023-03-15T14:11:00.513Z,0.13
2023-03-15T14:16:04.663Z,0.20
2023-03-15T14:21:12.204Z,0.30
2023-03-15T14:26:21.779Z,0.20
2023-03-15T14:31:26.840Z,0.20
2023-03-15T14:36:35.611Z,0.77
2023-03-15T14:41:39.238Z,0.30
2023-03-15T14:46:42.037Z,0.10
2023-03-15T14:51:44.941Z,0.30
2023-03-15T14:56:48.820Z,0.20
2023-03-15T15:01:55.280Z,0.30
2023-03-15T15:06:58.089Z,0.20
2023-03-15T15:12:01.804Z,0.20
2023-03-15T15:17:04.511Z,0.13
2023-03-15T15:22:07.225Z,0.20
2023-03-15T15:27:15.039Z,0.30
2023-03-15T15:32:17.482Z,0.20
2023-03-15T15:37:20.134Z,0.23
2023-03-15T15:42:24.929Z,0.40
2023-03-15T15:47:28.764Z,0.23
2023-03-15T15:52:31.452Z,0.30
2023-03-15T15:57:35.540Z,0.20
2023-03-15T16:02:38.909Z,0.40
2023-03-15T16:07:42.197Z,0.13
2023-03-15T16:12:45.972Z,0.30
2023-03-15T16:17:49.990Z,0.30
2023-03-15T16:22:57.822Z,0.30
2023-03-15T16:28:04.489Z,0.33
2023-03-15T16:33:16.985Z,0.30
2023-03-15T16:38:27.641Z,0.40
2023-03-15T16:43:33.838Z,0.40
2023-03-15T16:48:38.123Z,0.30
2023-03-15T16:53:45.277Z,0.20
2023-03-15T16:58:55.330Z,0.83
2023-03-15T17:03:59.487Z,0.60
2023-03-15T17:09:10.069Z,0.27
2023-03-15T17:14:18.600Z,0.60
2023-03-15T17:19:22.143Z,0.77
2023-03-15T17:24:27.009Z,0.83
2023-03-15T17:29:32.396Z,0.80
2023-03-15T17:34:36.650Z,0.80
2023-03-15T17:39:41.077Z,0.63
2023-03-15T17:44:48.709Z,0.70
2023-03-15T17:49:53.447Z,0.90
2023-03-15T17:54:57.263Z,1.07
2023-03-15T18:00:02.910Z,1.83
2023-03-15T18:05:06.481Z,2.27
2023-03-15T18:10:12.287Z,1.30
2023-03-15T18:15:19.809Z,1.30
2023-03-15T18:20:25.157Z,2.20
2023-03-15T18:25:30.931Z,1.43
2023-03-15T18:30:37.936Z,1.40
2023-03-15T18:35:47.661Z,0.87
2023-03-15T18:40:52.609Z,0.50
2023-03-15T18:46:03.039Z,12.43
2023-03-15T18:51:07.771Z,1.93
2023-03-15T18:56:17.652Z,0.90
2023-03-15T19:01:30.997Z,1.10
2023-03-15T19:06:35.908Z,1.30
2023-03-15T19:11:42.593Z,1.20
2023-03-15T19:16:48.740Z,1.80
2023-03-15T19:21:52.738Z,2.17
2023-03-15T19:26:56.896Z,2.30
2023-03-15T19:32:03.721Z,2.70
2023-03-15T19:37:07.784Z,1.90
2023-03-15T19:42:12.194Z,2.80
2023-03-15T19:47:20.239Z,1.83
2023-03-15T19:52:24.567Z,1.43
2023-03-15T19:57:29.620Z,1.90
2023-03-15T20:02:36.769Z,2.00
2023-03-15T20:07:43.428Z,2.30
2023-03-15T20:12:49.260Z,2.60
2023-03-15T20:17:55.154Z,2.90
2023-03-15T20:22:59.652Z,2.50
2023-03-15T20:28:05.696Z,2.80
2023-03-15T20:33:12.324Z,2.57
2023-03-15T20:38:16.555Z,2.10
2023-03-15T20:43:21.106Z,2.00
2023-03-15T20:48:27.393Z,1.70
2023-03-15T20:53:32.178Z,2.33
2023-03-15T20:58:36.184Z,2.10
2023-03-15T21:03:44.280Z,1.80
2023-03-15T21:08:48.678Z,2.37
2023-03-15T21:13:53.512Z,2.40
2023-03-15T21:18:59.055Z,2.13
2023-03-15T21:24:02.639Z,2.27
2023-03-15T21:29:07.578Z,2.67
2023-03-15T21:34:11.667Z,2.30
2023-03-15T21:39:16.058Z,2.20
2023-03-15T21:44:19.612Z,2.37
2023-03-15T21:49:24.275Z,2.40
2023-03-15T21:54:26.926Z,2.20
2023-03-15T21:59:29.394Z,2.40
2023-03-15T22:04:34.608Z,2.13
2023-03-15T22:09:38.241Z,1.80
2023-03-15T22:14:41.297Z,1.70
2023-03-15T22:19:45.464Z,1.40
2023-03-15T22:24:47.730Z,1.30
2023-03-15T22:29:50.278Z,1.50
2023-03-15T22:34:53.897Z,1.13
2023-03-15T22:39:56.182Z,1.40
2023-03-15T22:44:58.807Z,1.30
2023-03-15T22:50:02.577Z,1.40
2023-03-15T22:55:05.121Z,1.40
2023-03-15T23:00:13.872Z,1.40
2023-03-15T23:05:18.136Z,1.40
2023-03-15T23:10:20.438Z,1.73
2023-03-15T23:15:23.319Z,1.37
2023-03-15T23:20:27.496Z,1.27
2023-03-15T23:25:30.533Z,1.40
2023-03-15T23:30:35.480Z,1.70
2023-03-15T23:35:39.745Z,2.00
2023-03-15T23:40:41.743Z,1.80
2023-03-15T23:45:43.644Z,2.40
2023-03-15T23:50:47.570Z,2.80
2023-03-15T23:55:49.758Z,2.47
